Terminal Aerodrome Forecast
Issued by NWS Jackson, KY

Home | Current Version | Previous Version | Text Only | Print | Product List | Glossary On
Versions: 1 2 3 4 5 6 7 8 9 10 11 12 13 14 15 16 17 18 19 20 21 22 23 24
000
FTUS43 KJKL 300539
TAFLOZ
TAF
KLOZ 300539Z 3006/3106 00000KT P6SM VCSH SCT020 BKN045
     FM300900 00000KT 3SM BR FEW003 SCT020 BKN090
     FM301300 VRB06KT P6SM VCSH SCT015 BKN025
     FM301700 25006KT P6SM VCTS SCT025CB BKN045
     FM310000 26004KT P6SM BKN040 BKN090
     FM310400 00000KT 3SM BR SCT003 BKN090=

USA.gov is the U.S. government's official web portal to all federal, state and local government web resources and services.